Time;durP1;ratioP1;P1;durP2;ratioP2;P2;SDS_P1;SDS_P2;PMS_P1;PMS_P2;Temp;Humidity;BMP_temperature;BMP_pressure;BME280_temperature;BME280_humidity;BME280_pressure;Samples;Min_cycle;Max_cycle;Signal;HPM_P1;HPM_P2
2022/08/08 00:00:20;;;;;;;1.67;1.10;;;20.30;46.10;;;;;;7385487;19;20436;-46
2022/08/08 00:03:01;;;;;;;1.50;1.03;;;20.10;46.20;;;;;;7387172;19;20906;-46
2022/08/08 00:05:39;;;;;;;1.43;1.33;;;20.00;46.20;;;;;;7386929;19;20376;-46
2022/08/08 00:08:20;;;;;;;2.53;1.20;;;20.10;46.10;;;;;;7383246;19;20380;-46
2022/08/08 00:10:56;;;;;;;1.20;1.10;;;20.30;46.20;;;;;;7388060;19;20440;-46
2022/08/08 00:13:32;;;;;;;1.30;1.20;;;20.40;46.10;;;;;;7387705;19;20394;-46
2022/08/08 00:16:14;;;;;;;1.43;1.10;;;20.30;46.20;;;;;;7385706;19;20805;-47
2022/08/08 00:18:50;;;;;;;2.10;1.50;;;20.10;46.40;;;;;;7386141;19;20481;-46
2022/08/08 00:21:26;;;;;;;2.50;1.00;;;20.00;46.70;;;;;;7386058;19;20387;-46
2022/08/08 00:24:06;;;;;;;1.10;1.00;;;20.00;46.70;;;;;;7386914;19;20376;-46
2022/08/08 00:26:40;;;;;;;7.47;1.23;;;20.10;46.60;;;;;;7387541;19;20420;-46
2022/08/08 00:29:15;;;;;;;1.33;1.03;;;20.20;46.60;;;;;;7386879;19;20466;-46
2022/08/08 00:31:49;;;;;;;2.53;1.00;;;20.20;46.40;;;;;;7386015;19;20380;-46
2022/08/08 00:37:36;;;;;;;1.20;0.90;;;19.90;46.60;;;;;;7385252;19;20459;-46
2022/08/08 00:40:48;;;;;;;1.37;0.90;;;19.70;47.30;;;;;;7384024;19;20467;-46
2022/08/08 00:43:56;;;;;;;1.00;0.90;;;19.80;47.70;;;;;;7381771;19;20728;-46
2022/08/08 00:46:50;;;;;;;1.10;0.93;;;19.90;47.20;;;;;;7384460;19;20389;-46
2022/08/08 00:49:43;;;;;;;1.83;1.10;;;19.90;47.20;;;;;;7383157;19;20383;-47
2022/08/08 00:52:31;;;;;;;1.50;0.87;;;19.80;47.10;;;;;;7386472;19;20400;-46
2022/08/08 00:55:23;;;;;;;1.23;1.13;;;19.80;47.20;;;;;;7385301;19;20406;-46
2022/08/08 00:58:21;;;;;;;1.50;1.23;;;19.60;47.40;;;;;;7383407;19;20396;-46
2022/08/08 01:01:06;;;;;;;1.37;1.20;;;19.60;47.60;;;;;;7383843;19;20871;-46
2022/08/08 01:04:01;;;;;;;1.57;1.07;;;19.50;47.70;;;;;;7384311;19;20937;-46
2022/08/08 01:07:12;;;;;;;1.20;1.10;;;19.60;47.80;;;;;;7383218;19;20416;-46
2022/08/08 01:10:37;;;;;;;2.43;1.00;;;19.70;47.80;;;;;;7384796;19;20758;-46
2022/08/08 01:13:38;;;;;;;1.57;1.40;;;19.60;48.00;;;;;;7384731;19;20440;-46
2022/08/08 01:16:44;;;;;;;1.10;1.00;;;19.50;48.50;;;;;;7384156;19;20371;-46
2022/08/08 01:19:44;;;;;;;1.53;1.43;;;19.30;48.90;;;;;;7385266;19;20384;-46
2022/08/08 01:22:44;;;;;;;1.70;1.30;;;19.20;49.00;;;;;;7385712;19;20392;-46
2022/08/08 01:25:57;;;;;;;1.00;0.87;;;19.20;49.20;;;;;;7385739;19;20926;-46
2022/08/08 01:29:02;;;;;;;1.90;1.03;;;19.30;49.30;;;;;;7383499;19;20493;-46
2022/08/08 01:32:10;;;;;;;1.30;1.20;;;19.30;49.20;;;;;;7384245;19;20379;-46
2022/08/08 01:35:02;;;;;;;1.87;1.33;;;19.20;49.30;;;;;;7383648;19;20530;-46
2022/08/08 01:38:06;;;;;;;1.20;1.10;;;19.20;49.50;;;;;;7383848;19;20364;-46
2022/08/08 01:40:50;;;;;;;1.13;1.03;;;19.00;50.00;;;;;;7384054;19;20376;-46
2022/08/08 01:43:33;;;;;;;1.53;1.30;;;19.10;49.90;;;;;;7383320;19;20376;-46
2022/08/08 01:46:15;;;;;;;2.50;1.53;;;19.10;49.70;;;;;;7384885;19;20376;-46
2022/08/08 01:48:55;;;;;;;1.70;1.40;;;19.20;49.50;;;;;;7382711;19;20412;-46
2022/08/08 01:51:45;;;;;;;2.50;1.70;;;19.00;49.50;;;;;;7385286;19;20423;-45
2022/08/08 01:54:25;;;;;;;0.93;0.87;;;18.90;50.00;;;;;;7384430;19;20387;-46
2022/08/08 01:57:09;;;;;;;1.37;1.23;;;18.80;50.10;;;;;;7383282;19;20720;-45
2022/08/08 01:59:57;;;;;;;1.77;1.20;;;18.80;50.30;;;;;;7382479;19;20395;-46
2022/08/08 02:02:42;;;;;;;1.50;1.00;;;18.70;50.00;;;;;;7382899;19;20779;-45
2022/08/08 02:05:38;;;;;;;1.23;1.00;;;18.70;49.50;;;;;;7379502;19;20834;-46
2022/08/08 02:08:20;;;;;;;1.30;1.00;;;18.90;49.20;;;;;;7382490;19;20910;-46
2022/08/08 02:11:03;;;;;;;2.90;1.10;;;19.00;49.30;;;;;;7384111;19;21013;-46
2022/08/08 02:13:39;;;;;;;1.57;1.00;;;18.90;49.70;;;;;;7383574;19;20476;-46
2022/08/08 02:16:24;;;;;;;2.10;1.20;;;19.00;49.70;;;;;;7383813;19;20378;-46
2022/08/08 02:19:00;;;;;;;1.70;1.53;;;19.10;49.70;;;;;;7383533;19;20372;-46
2022/08/08 02:24:40;;;;;;;1.90;1.10;;;19.00;49.80;;;;;;7380879;19;20658;-46
2022/08/08 02:27:19;;;;;;;0.90;0.90;;;18.80;50.00;;;;;;7382763;19;20399;-46
2022/08/08 02:30:06;;;;;;;1.60;1.10;;;18.70;50.80;;;;;;7382586;19;20444;-46
2022/08/08 02:33:15;;;;;;;1.83;1.10;;;18.60;50.40;;;;;;7378330;19;20745;-46
2022/08/08 02:36:12;;;;;;;1.93;1.00;;;18.60;50.40;;;;;;7379533;19;20368;-46
2022/08/08 02:39:04;;;;;;;1.27;1.17;;;18.50;50.70;;;;;;7382488;19;20965;-46
2022/08/08 02:42:11;;;;;;;1.20;1.10;;;18.30;51.00;;;;;;7382655;19;20380;-46
2022/08/08 02:45:13;;;;;;;1.73;1.10;;;18.60;50.90;;;;;;7382465;19;20391;-46
2022/08/08 02:48:09;;;;;;;1.33;1.23;;;18.80;50.60;;;;;;7381262;19;20396;-45
2022/08/08 02:51:07;;;;;;;1.20;1.10;;;18.70;50.40;;;;;;7381472;19;20375;-46
2022/08/08 02:54:04;;;;;;;3.70;1.87;;;18.60;50.70;;;;;;7381494;19;20420;-46
2022/08/08 02:57:19;;;;;;;1.30;1.20;;;18.60;50.70;;;;;;7380717;19;20443;-46
2022/08/08 03:00:23;;;;;;;1.50;1.40;;;18.50;50.90;;;;;;7381511;19;20380;-46
2022/08/08 03:03:44;;;;;;;1.50;1.40;;;18.50;50.90;;;;;;7382146;19;20368;-46
2022/08/08 03:06:39;;;;;;;3.27;1.17;;;18.60;50.70;;;;;;7381118;19;20434;-46
2022/08/08 03:09:55;;;;;;;1.60;1.30;;;18.50;51.10;;;;;;7378820;19;20395;-46
2022/08/08 03:13:07;;;;;;;1.17;1.07;;;18.50;51.00;;;;;;7387124;19;20357;-46
2022/08/08 03:16:19;;;;;;;1.40;1.20;;;18.40;51.40;;;;;;7388265;19;20404;-46
2022/08/08 03:19:01;;;;;;;1.63;1.20;;;18.30;52.20;;;;;;7388509;19;20464;-46
2022/08/08 03:21:30;;;;;;;1.77;1.40;;;18.20;52.10;;;;;;7389358;19;20364;-45
2022/08/08 03:24:02;;;;;;;2.00;1.40;;;18.20;52.10;;;;;;7388807;19;20380;-46
2022/08/08 03:26:39;;;;;;;1.90;1.77;;;18.30;51.90;;;;;;7388996;19;20369;-46
2022/08/08 03:29:13;;;;;;;2.60;1.30;;;18.30;51.90;;;;;;7386377;19;20417;-46
2022/08/08 03:34:25;;;;;;;1.87;1.00;;;18.20;52.70;;;;;;7389411;19;20376;-46
2022/08/08 03:36:55;;;;;;;1.57;1.37;;;18.20;52.40;;;;;;7389138;19;20981;-46
2022/08/08 03:39:27;;;;;;;2.90;1.30;;;18.20;52.70;;;;;;7387960;19;20376;-45
2022/08/08 03:41:57;;;;;;;2.50;1.60;;;18.30;52.70;;;;;;7388878;19;20902;-46
2022/08/08 03:44:35;;;;;;;2.50;1.60;;;18.40;53.00;;;;;;7388425;19;20409;-46
2022/08/08 03:47:08;;;;;;;1.17;1.07;;;18.30;53.60;;;;;;7387799;19;20394;-47
2022/08/08 03:49:40;;;;;;;1.97;1.30;;;18.20;53.70;;;;;;7387004;19;20396;-46
2022/08/08 03:52:11;;;;;;;3.23;1.90;;;18.00;54.30;;;;;;7387971;19;20388;-46
2022/08/08 03:54:45;;;;;;;1.60;1.30;;;18.00;54.80;;;;;;7388745;19;20380;-47
2022/08/08 03:57:16;;;;;;;3.13;2.00;;;18.00;55.00;;;;;;7387005;19;20420;-46
2022/08/08 03:59:45;;;;;;;1.30;1.20;;;17.90;54.40;;;;;;7388005;19;20391;-45
2022/08/08 04:02:18;;;;;;;2.20;1.50;;;17.90;54.90;;;;;;7387580;19;20376;-46
2022/08/08 04:04:48;;;;;;;8.50;1.70;;;18.00;55.10;;;;;;7385623;19;20435;-46
2022/08/08 04:07:18;;;;;;;1.47;1.37;;;18.10;55.20;;;;;;7386696;19;20368;-46
2022/08/08 04:10:00;;;;;;;2.17;1.57;;;18.20;55.00;;;;;;7385315;19;20380;-45
2022/08/08 04:12:30;;;;;;;2.63;1.47;;;18.00;55.20;;;;;;7387607;19;20459;-46
2022/08/08 04:14:59;;;;;;;1.40;1.30;;;18.10;55.40;;;;;;7386054;19;20383;-46
2022/08/08 04:17:29;;;;;;;1.60;1.27;;;18.20;55.30;;;;;;7387251;19;20945;-45
2022/08/08 04:20:02;;;;;;;1.60;1.40;;;18.10;55.00;;;;;;7384607;19;20364;-46
2022/08/08 04:22:33;;;;;;;1.60;1.40;;;18.00;55.00;;;;;;7387107;19;20384;-46
2022/08/08 04:25:07;;;;;;;1.67;1.57;;;17.90;54.90;;;;;;7387429;19;20422;-46
2022/08/08 04:27:41;;;;;;;2.63;1.40;;;17.80;55.30;;;;;;7386517;19;20367;-45
2022/08/08 04:30:14;;;;;;;3.43;1.40;;;17.80;55.30;;;;;;7386937;19;20391;-45
2022/08/08 04:32:43;;;;;;;1.57;1.33;;;17.90;55.30;;;;;;7387041;19;20937;-45
2022/08/08 04:35:13;;;;;;;1.73;1.63;;;18.00;55.20;;;;;;7386739;19;20372;-48
2022/08/08 04:37:44;;;;;;;1.90;1.53;;;18.10;55.20;;;;;;7385604;19;20417;-46
2022/08/08 04:40:22;;;;;;;2.80;1.77;;;18.00;55.60;;;;;;7386399;19;20439;-46
2022/08/08 04:42:55;;;;;;;3.87;1.33;;;18.00;55.40;;;;;;7385137;19;20447;-45
2022/08/08 04:45:26;;;;;;;1.60;1.50;;;17.90;55.90;;;;;;7386106;19;20376;-46
2022/08/08 04:47:58;;;;;;;1.50;1.40;;;17.70;56.40;;;;;;7386160;19;20372;-45
2022/08/08 04:50:30;;;;;;;1.70;1.50;;;17.50;57.70;;;;;;7387195;19;20380;-46
2022/08/08 04:53:00;;;;;;;2.10;1.90;;;17.50;57.30;;;;;;7386930;19;20399;-46
2022/08/08 04:55:32;;;;;;;3.67;2.20;;;17.50;57.50;;;;;;7384532;19;20828;-45
2022/08/08 04:58:01;;;;;;;3.80;1.80;;;17.60;57.80;;;;;;7386050;19;20747;-46
2022/08/08 05:00:31;;;;;;;1.73;1.30;;;17.90;57.60;;;;;;7384675;19;20783;-46
2022/08/08 05:03:01;;;;;;;2.50;1.57;;;17.90;57.30;;;;;;7385961;19;20842;-46
2022/08/08 05:05:30;;;;;;;2.73;1.80;;;18.00;57.70;;;;;;7383425;19;20479;-46
2022/08/08 05:08:00;;;;;;;2.13;1.93;;;17.90;58.00;;;;;;7385374;19;20402;-46
2022/08/08 05:10:32;;;;;;;4.70;1.70;;;18.00;58.10;;;;;;7385292;19;20378;-47
2022/08/08 05:13:03;;;;;;;4.70;2.70;;;18.10;58.10;;;;;;7385043;19;20376;-46
2022/08/08 05:15:37;;;;;;;2.40;1.87;;;18.00;58.40;;;;;;7385667;19;20388;-46
2022/08/08 05:18:06;;;;;;;1.90;1.70;;;18.00;59.00;;;;;;7387274;19;20371;-46
2022/08/08 05:20:36;;;;;;;3.40;1.73;;;18.10;59.00;;;;;;7384366;19;20376;-45
2022/08/08 05:23:06;;;;;;;2.20;2.00;;;18.10;59.00;;;;;;7384534;19;21282;-46
2022/08/08 05:25:38;;;;;;;3.90;1.77;;;18.20;59.10;;;;;;7383526;19;20372;-47
2022/08/08 05:28:08;;;;;;;2.93;1.87;;;18.30;58.90;;;;;;7384200;19;20402;-46
2022/08/08 05:30:40;;;;;;;2.30;2.10;;;18.30;58.30;;;;;;7383770;19;20783;-46
2022/08/08 05:33:11;;;;;;;2.10;1.70;;;18.20;59.00;;;;;;7384448;19;20381;-47
2022/08/08 05:35:44;;;;;;;2.03;1.83;;;18.40;57.90;;;;;;7383764;19;20386;-46
2022/08/08 05:38:19;;;;;;;2.17;1.80;;;18.40;56.80;;;;;;7383406;19;20364;-46
2022/08/08 05:40:56;;;;;;;1.57;1.47;;;18.50;57.30;;;;;;7384969;19;21436;-46
2022/08/08 05:43:28;;;;;;;3.13;2.30;;;18.60;56.80;;;;;;7382989;19;20372;-46
2022/08/08 05:46:03;;;;;;;2.63;2.10;;;18.80;56.20;;;;;;7383545;19;20384;-46
2022/08/08 05:48:36;;;;;;;3.93;1.60;;;18.60;56.40;;;;;;7383994;19;20377;-46
2022/08/08 05:51:06;;;;;;;2.40;1.90;;;18.60;56.50;;;;;;7383658;19;20376;-46
2022/08/08 05:53:35;;;;;;;2.27;2.00;;;18.70;56.40;;;;;;7386331;19;20391;-46
2022/08/08 05:56:10;;;;;;;5.23;2.07;;;18.90;55.70;;;;;;7383845;19;20379;-46
2022/08/08 05:58:45;;;;;;;2.03;1.93;;;19.20;55.50;;;;;;7384198;19;20380;-46
2022/08/08 06:01:16;;;;;;;5.40;2.20;;;19.40;55.30;;;;;;7381456;19;20432;-46
2022/08/08 06:03:49;;;;;;;2.23;1.90;;;19.70;54.80;;;;;;7381861;19;20548;-47
2022/08/08 06:06:24;;;;;;;2.50;1.80;;;19.80;54.70;;;;;;7385118;19;20380;-47
2022/08/08 06:08:55;;;;;;;1.67;1.53;;;20.00;54.30;;;;;;7382980;19;20379;-46
2022/08/08 06:11:32;;;;;;;2.17;1.73;;;20.10;54.20;;;;;;7383518;19;20376;-46
2022/08/08 06:14:04;;;;;;;2.70;1.93;;;20.30;54.20;;;;;;7383337;19;20420;-46
2022/08/08 06:16:36;;;;;;;2.53;1.70;;;20.40;54.20;;;;;;7382312;19;20411;-47
2022/08/08 06:19:26;;;;;;;3.07;1.60;;;20.30;54.50;;;;;;7383257;19;20382;-46
2022/08/08 06:21:56;;;;;;;4.30;1.70;;;20.50;54.50;;;;;;7382335;19;20368;-46
2022/08/08 06:24:30;;;;;;;3.07;1.83;;;20.60;54.50;;;;;;7381807;19;20375;-46
2022/08/08 06:27:07;;;;;;;3.00;1.90;;;20.80;54.70;;;;;;7383337;19;20381;-47
2022/08/08 06:29:46;;;;;;;2.77;2.07;;;21.00;54.40;;;;;;7380982;19;20437;-46
2022/08/08 06:32:17;;;;;;;2.07;1.70;;;21.20;53.80;;;;;;7383053;19;20406;-46
2022/08/08 06:34:53;;;;;;;3.50;2.40;;;21.40;53.40;;;;;;7383447;19;20383;-46
2022/08/08 06:37:28;;;;;;;2.20;2.00;;;21.60;53.10;;;;;;7382382;19;20388;-46
2022/08/08 06:40:06;;;;;;;3.37;2.03;;;21.80;52.90;;;;;;7383149;19;20384;-46
2022/08/08 06:42:40;;;;;;;2.23;2.00;;;22.00;52.60;;;;;;7381369;19;20937;-46
2022/08/08 06:45:11;;;;;;;2.67;1.80;;;22.20;52.70;;;;;;7381034;19;20570;-46
2022/08/08 06:47:41;;;;;;;4.03;3.00;;;22.30;52.50;;;;;;7385685;19;20388;-46
2022/08/08 06:50:12;;;;;;;3.17;2.53;;;22.40;52.30;;;;;;7386508;19;20476;-47
2022/08/08 06:52:41;;;;;;;4.00;2.50;;;22.60;51.80;;;;;;7390262;19;20761;-46
2022/08/08 06:55:12;;;;;;;4.77;2.63;;;22.70;51.60;;;;;;7387426;19;20383;-47
2022/08/08 06:57:44;;;;;;;3.23;2.77;;;22.90;51.60;;;;;;7389247;19;20375;-46
2022/08/08 07:00:15;;;;;;;2.00;1.87;;;23.10;51.30;;;;;;7387156;19;20532;-46
2022/08/08 07:02:53;;;;;;;2.93;2.67;;;23.20;51.20;;;;;;7387850;19;21248;-46
2022/08/08 07:05:26;;;;;;;4.40;2.83;;;23.30;51.10;;;;;;7387045;19;20403;-46
2022/08/08 07:08:05;;;;;;;5.40;3.03;;;23.50;51.10;;;;;;7387062;19;20379;-47
2022/08/08 07:10:40;;;;;;;3.87;2.27;;;23.50;51.10;;;;;;7385507;19;20910;-46
2022/08/08 07:13:18;;;;;;;2.23;2.03;;;23.60;51.10;;;;;;7386331;19;20898;-47
2022/08/08 07:16:01;;;;;;;3.10;2.80;;;23.80;51.00;;;;;;7387064;19;20810;-46
2022/08/08 07:18:40;;;;;;;3.87;2.60;;;24.00;50.80;;;;;;7385740;19;20820;-47
2022/08/08 07:21:11;;;;;;;4.83;2.77;;;24.10;50.70;;;;;;7387499;19;20410;-46
2022/08/08 07:23:46;;;;;;;5.10;2.67;;;24.20;50.50;;;;;;7387578;19;20383;-47
2022/08/08 07:26:18;;;;;;;3.90;2.63;;;24.40;50.40;;;;;;7388134;19;20391;-47
2022/08/08 07:28:52;;;;;;;3.00;2.20;;;24.50;50.40;;;;;;7387462;19;20375;-47
2022/08/08 07:31:23;;;;;;;3.30;2.80;;;24.70;50.00;;;;;;7389106;19;20387;-47
2022/08/08 07:33:54;;;;;;;4.17;3.40;;;24.90;49.70;;;;;;7385731;19;20458;-47
2022/08/08 07:36:24;;;;;;;4.37;2.70;;;25.00;49.20;;;;;;7386549;19;20388;-47
2022/08/08 07:38:54;;;;;;;4.23;3.10;;;25.10;49.10;;;;;;7387972;19;20911;-47
2022/08/08 07:41:27;;;;;;;5.87;3.30;;;25.20;49.00;;;;;;7387517;19;20380;-47
2022/08/08 07:44:04;;;;;;;5.10;2.70;;;25.50;48.70;;;;;;7388288;19;20443;-47
2022/08/08 07:46:34;;;;;;;7.20;3.33;;;25.70;48.30;;;;;;7385902;19;20479;-47
2022/08/08 07:49:13;;;;;;;4.40;2.57;;;25.90;48.00;;;;;;7387268;19;20376;-47
2022/08/08 07:51:46;;;;;;;4.03;2.90;;;26.00;47.70;;;;;;7387262;19;20760;-47
2022/08/08 07:54:26;;;;;;;4.80;2.93;;;26.20;48.00;;;;;;7386462;19;20372;-47
2022/08/08 07:57:03;;;;;;;6.13;2.90;;;26.30;47.10;;;;;;7386609;19;20388;-47
2022/08/08 07:59:48;;;;;;;5.17;2.90;;;26.30;47.00;;;;;;7387907;19;20391;-48
2022/08/08 08:02:24;;;;;;;3.33;2.70;;;26.50;47.30;;;;;;7386925;19;20392;-48
2022/08/08 08:05:00;;;;;;;3.80;2.83;;;26.70;47.70;;;;;;7383529;19;20386;-49
2022/08/08 08:07:33;;;;;;;3.67;3.03;;;26.90;47.00;;;;;;7386307;19;20405;-49
2022/08/08 08:10:09;;;;;;;3.73;2.33;;;26.90;46.40;;;;;;7384010;19;20379;-48
2022/08/08 08:12:42;;;;;;;5.50;2.90;;;27.00;46.70;;;;;;7386980;19;20381;-49
2022/08/08 08:15:19;;;;;;;5.37;3.83;;;27.20;46.50;;;;;;7385840;19;20847;-49
2022/08/08 08:17:52;;;;;;;2.40;2.20;;;27.50;45.90;;;;;;7386367;19;20380;-49
2022/08/08 08:20:28;;;;;;;2.70;2.50;;;27.70;45.00;;;;;;7385708;19;20431;-49
2022/08/08 08:22:57;;;;;;;3.43;2.60;;;27.80;44.00;;;;;;7386377;19;20380;-49
2022/08/08 08:25:28;;;;;;;3.13;1.90;;;27.90;44.10;;;;;;7385867;19;20380;-49
2022/08/08 08:28:00;;;;;;;2.47;2.27;;;27.80;44.10;;;;;;7386076;19;20377;-48
2022/08/08 08:30:32;;;;;;;2.33;2.13;;;27.90;43.90;;;;;;7386855;19;20412;-49
2022/08/08 08:33:01;;;;;;;2.47;2.27;;;28.10;43.80;;;;;;7386352;19;20384;-49
2022/08/08 08:35:32;;;;;;;2.17;1.97;;;28.20;43.40;;;;;;7385658;19;20384;-49
2022/08/08 08:38:04;;;;;;;2.87;2.40;;;28.30;43.20;;;;;;7385888;19;20384;-49
2022/08/08 08:40:35;;;;;;;3.83;2.70;;;28.30;43.00;;;;;;7384831;19;20368;-48
2022/08/08 08:43:06;;;;;;;6.00;2.53;;;28.30;43.20;;;;;;7386922;19;20432;-48
2022/08/08 08:45:39;;;;;;;6.60;2.93;;;28.40;43.20;;;;;;7385143;19;20921;-49
2022/08/08 08:48:10;;;;;;;2.87;2.67;;;28.50;42.70;;;;;;7386816;19;20415;-48
2022/08/08 08:50:41;;;;;;;3.23;2.13;;;28.70;42.80;;;;;;7385550;19;20384;-49
2022/08/08 08:53:15;;;;;;;2.53;2.33;;;28.90;42.40;;;;;;7383890;19;20376;-49
2022/08/08 08:55:47;;;;;;;3.37;2.50;;;29.20;42.00;;;;;;7385654;19;20372;-49
2022/08/08 08:58:25;;;;;;;2.10;1.90;;;29.50;41.60;;;;;;7384074;19;20372;-49
2022/08/08 09:01:01;;;;;;;5.90;2.83;;;29.80;41.80;;;;;;7385970;19;20524;-48
2022/08/08 09:03:32;;;;;;;2.53;2.33;;;30.10;41.00;;;;;;7384930;19;20391;-48
2022/08/08 09:06:03;;;;;;;2.20;2.00;;;30.30;40.50;;;;;;7384887;19;20489;-49
2022/08/08 09:08:38;;;;;;;2.33;2.13;;;30.70;40.50;;;;;;7384764;19;20391;-46
2022/08/08 09:11:10;;;;;;;3.13;2.07;;;31.10;39.10;;;;;;7380800;19;20416;-46
2022/08/08 09:13:40;;;;;;;2.23;2.03;;;31.40;38.70;;;;;;7384463;19;20376;-46
2022/08/08 09:16:15;;;;;;;2.47;2.20;;;31.80;38.00;;;;;;7384346;19;20383;-46
2022/08/08 09:18:48;;;;;;;2.90;2.37;;;32.10;36.90;;;;;;7384300;19;20405;-46
2022/08/08 09:21:18;;;;;;;1.70;1.60;;;32.00;36.90;;;;;;7384045;19;20399;-47
2022/08/08 09:23:48;;;;;;;4.47;1.90;;;32.30;35.70;;;;;;7383422;19;20384;-47
2022/08/08 09:26:23;;;;;;;2.27;1.60;;;32.40;35.30;;;;;;7383915;19;20380;-47
2022/08/08 09:28:59;;;;;;;2.33;1.70;;;33.10;34.50;;;;;;7383949;19;20818;-49
2022/08/08 09:31:47;;;;;;;2.50;1.90;;;33.60;33.60;;;;;;7382947;19;20914;-47
2022/08/08 09:34:20;;;;;;;2.50;1.70;;;34.00;32.50;;;;;;7384049;19;20484;-47
2022/08/08 09:36:51;;;;;;;2.47;1.60;;;34.40;32.30;;;;;;7383921;19;20391;-47
2022/08/08 09:39:22;;;;;;;2.47;1.90;;;34.80;31.90;;;;;;7383643;19;20999;-48
2022/08/08 09:42:03;;;;;;;1.77;1.40;;;35.20;30.80;;;;;;7384036;19;20415;-47
2022/08/08 09:44:49;;;;;;;3.27;1.90;;;35.50;30.70;;;;;;7384355;19;21053;-47
2022/08/08 09:47:24;;;;;;;2.20;2.00;;;35.40;30.70;;;;;;7382292;19;20404;-49
2022/08/08 09:50:01;;;;;;;1.40;1.30;;;35.20;30.80;;;;;;7384727;19;20420;-50
2022/08/08 09:52:35;;;;;;;1.43;1.33;;;35.20;29.40;;;;;;7383172;19;20908;-47
2022/08/08 09:55:08;;;;;;;2.07;1.60;;;35.90;29.40;;;;;;7385029;19;20736;-47
2022/08/08 09:57:42;;;;;;;1.97;1.60;;;36.60;29.40;;;;;;7385277;19;20380;-47
2022/08/08 10:00:13;;;;;;;1.60;1.23;;;37.40;28.60;;;;;;7384050;19;20901;-47
2022/08/08 10:02:49;;;;;;;1.50;1.40;;;37.90;26.90;;;;;;7384962;19;20372;-47
2022/08/08 10:05:20;;;;;;;3.03;1.00;;;37.80;26.50;;;;;;7382550;19;20992;-47
2022/08/08 10:07:59;;;;;;;1.53;1.40;;;38.10;26.40;;;;;;7383195;19;20953;-47
2022/08/08 10:10:30;;;;;;;1.33;1.00;;;38.10;26.00;;;;;;7383257;19;20386;-47
2022/08/08 10:13:00;;;;;;;2.00;1.37;;;38.50;26.00;;;;;;7385889;19;20383;-47
2022/08/08 10:15:38;;;;;;;1.27;1.17;;;39.00;25.60;;;;;;7381915;19;20396;-47
2022/08/08 10:18:10;;;;;;;1.30;1.20;;;39.10;25.70;;;;;;7382497;19;20741;-47
2022/08/08 10:20:44;;;;;;;1.87;1.77;;;38.70;25.80;;;;;;7387418;19;20405;-47
2022/08/08 10:23:17;;;;;;;1.80;1.70;;;38.90;26.40;;;;;;7391231;19;20368;-47
2022/08/08 10:25:48;;;;;;;3.80;2.30;;;39.90;25.60;;;;;;7392576;19;20382;-48
2022/08/08 10:28:20;;;;;;;2.20;1.90;;;40.30;25.50;;;;;;7391664;19;20376;-47
2022/08/08 10:30:57;;;;;;;6.00;5.17;;;41.20;24.90;;;;;;7387980;19;21065;-47
2022/08/08 10:33:33;;;;;;;2.20;2.00;;;41.60;24.60;;;;;;7391869;19;20383;-48
2022/08/08 10:36:04;;;;;;;1.87;1.70;;;42.40;24.30;;;;;;7387850;19;20914;-48
2022/08/08 10:38:34;;;;;;;2.20;1.67;;;42.50;24.50;;;;;;7388658;19;20372;-48
2022/08/08 10:41:07;;;;;;;2.87;1.60;;;42.80;24.10;;;;;;7391046;19;20384;-48
2022/08/08 10:43:40;;;;;;;4.13;2.10;;;42.20;24.30;;;;;;7391972;19;20374;-48
2022/08/08 10:49:01;;;;;;;2.10;1.90;;;41.70;24.80;;;;;;7388745;19;20402;-48
2022/08/08 10:51:39;;;;;;;3.57;1.80;;;41.40;24.40;;;;;;7388374;19;20466;-47
2022/08/08 10:54:08;;;;;;;2.00;1.73;;;41.00;24.90;;;;;;7389730;19;20379;-48
2022/08/08 10:56:38;;;;;;;2.17;1.80;;;39.80;26.00;;;;;;7388829;19;20727;-47
2022/08/08 10:59:11;;;;;;;1.77;1.67;;;38.80;26.20;;;;;;7388537;19;20396;-48
2022/08/08 11:01:41;;;;;;;1.70;1.60;;;39.00;25.60;;;;;;7387293;19;20432;-47
2022/08/08 11:04:16;;;;;;;1.63;1.30;;;40.40;25.10;;;;;;7388099;19;20387;-47
2022/08/08 11:06:45;;;;;;;2.30;1.30;;;41.40;23.70;;;;;;7388975;19;20836;-49
2022/08/08 11:09:15;;;;;;;1.97;1.23;;;42.20;22.90;;;;;;7387989;19;20874;-50
2022/08/08 11:11:47;;;;;;;1.40;1.30;;;42.30;22.70;;;;;;7387887;19;20384;-49
2022/08/08 11:14:17;;;;;;;2.10;1.10;;;43.20;23.10;;;;;;7389481;19;20469;-48
2022/08/08 11:16:47;;;;;;;1.47;1.37;;;43.60;22.00;;;;;;7390155;19;20364;-48
2022/08/08 11:19:20;;;;;;;2.57;1.23;;;43.40;21.80;;;;;;7388032;19;20376;-49
2022/08/08 11:21:54;;;;;;;1.30;1.20;;;43.90;21.90;;;;;;7390550;19;20384;-48
2022/08/08 11:24:26;;;;;;;1.40;1.30;;;44.40;21.80;;;;;;7388128;19;20959;-47
2022/08/08 11:26:58;;;;;;;1.50;1.20;;;44.40;21.30;;;;;;7388189;19;20372;-48
2022/08/08 11:29:31;;;;;;;3.60;1.53;;;44.70;21.40;;;;;;7389344;19;20397;-48
2022/08/08 11:32:05;;;;;;;2.53;1.47;;;45.00;21.00;;;;;;7385205;19;20386;-47
2022/08/08 11:34:41;;;;;;;4.20;1.20;;;45.60;20.90;;;;;;7386714;19;20360;-48
2022/08/08 11:37:11;;;;;;;1.10;1.00;;;45.30;20.10;;;;;;7387095;19;20466;-48
2022/08/08 11:39:40;;;;;;;1.10;1.00;;;45.30;19.90;;;;;;7386067;19;20722;-48
2022/08/08 11:42:12;;;;;;;1.10;1.00;;;45.60;19.80;;;;;;7389012;19;20754;-47
2022/08/08 11:44:42;;;;;;;1.87;1.10;;;45.00;19.60;;;;;;7388753;19;20368;-47
2022/08/08 11:47:15;;;;;;;2.80;1.50;;;44.40;20.40;;;;;;7385926;19;20847;-48
2022/08/08 11:49:50;;;;;;;1.30;1.20;;;45.00;20.10;;;;;;7387296;19;20933;-48
2022/08/08 11:52:21;;;;;;;1.53;1.43;;;45.80;19.50;;;;;;7384206;19;20380;-48
2022/08/08 11:54:50;;;;;;;1.40;1.30;;;46.10;19.40;;;;;;7389430;19;20464;-48
2022/08/08 11:57:25;;;;;;;1.63;1.20;;;45.40;19.80;;;;;;7385738;19;20401;-47
2022/08/08 12:00:00;;;;;;;0.97;0.93;;;45.00;20.00;;;;;;7383957;19;20491;-48
2022/08/08 12:02:32;;;;;;;1.53;1.00;;;44.50;20.10;;;;;;7384556;19;20387;-48
2022/08/08 12:05:07;;;;;;;1.20;1.10;;;44.70;20.00;;;;;;7386870;19;20396;-48
2022/08/08 12:07:47;;;;;;;2.73;1.30;;;43.90;20.10;;;;;;7387455;19;20412;-50
2022/08/08 12:10:18;;;;;;;0.97;0.90;;;43.50;20.40;;;;;;7388187;19;20372;-48
2022/08/08 12:12:49;;;;;;;1.67;1.20;;;44.00;20.40;;;;;;7386300;19;20387;-49
2022/08/08 12:15:29;;;;;;;1.17;1.07;;;44.90;20.00;;;;;;7387452;19;20443;-48
2022/08/08 12:17:59;;;;;;;1.43;0.93;;;45.70;19.40;;;;;;7387560;19;20959;-48
2022/08/08 12:20:42;;;;;;;1.47;0.93;;;45.90;19.40;;;;;;7385113;19;20757;-48
2022/08/08 12:23:11;;;;;;;0.80;0.80;;;45.40;19.40;;;;;;7385575;19;20701;-49
2022/08/08 12:25:44;;;;;;;1.10;1.00;;;44.40;20.10;;;;;;7387284;19;20376;-48
2022/08/08 12:28:16;;;;;;;1.80;1.30;;;44.50;20.10;;;;;;7384951;19;20405;-48
2022/08/08 12:30:46;;;;;;;2.07;1.03;;;44.50;20.40;;;;;;7387186;19;20388;-48
2022/08/08 12:33:22;;;;;;;1.90;1.20;;;44.90;20.20;;;;;;7386958;19;20385;-48
2022/08/08 12:35:56;;;;;;;1.73;1.13;;;45.50;19.60;;;;;;7385064;19;20387;-48
2022/08/08 12:38:29;;;;;;;1.80;1.07;;;45.40;19.50;;;;;;7386945;19;20964;-48
2022/08/08 12:40:58;;;;;;;1.30;1.20;;;44.80;19.60;;;;;;7385743;19;20380;-48
2022/08/08 12:43:31;;;;;;;1.77;1.10;;;45.10;19.70;;;;;;7382007;19;20414;-48
2022/08/08 12:46:01;;;;;;;3.73;1.10;;;45.80;19.30;;;;;;7386537;19;20410;-49
2022/08/08 12:48:33;;;;;;;1.50;1.20;;;46.10;19.40;;;;;;7385598;19;20368;-49
2022/08/08 12:51:05;;;;;;;1.20;1.07;;;46.40;19.00;;;;;;7385264;19;20368;-48
2022/08/08 12:53:36;;;;;;;1.67;1.40;;;45.60;19.60;;;;;;7386147;19;20750;-48
2022/08/08 12:56:08;;;;;;;2.10;1.30;;;44.50;20.00;;;;;;7385814;19;20380;-48
2022/08/08 12:58:46;;;;;;;5.40;1.83;;;42.90;21.00;;;;;;7385245;19;20383;-48
2022/08/08 13:01:18;;;;;;;1.70;1.23;;;41.40;21.80;;;;;;7383348;19;20432;-47
2022/08/08 13:03:52;;;;;;;1.43;1.13;;;39.60;22.70;;;;;;7384686;19;20813;-47
2022/08/08 13:06:24;;;;;;;2.03;1.27;;;38.30;23.70;;;;;;7383631;19;20910;-49
2022/08/08 13:08:55;;;;;;;1.30;1.20;;;37.40;24.30;;;;;;7385614;19;20387;-50
2022/08/08 13:11:27;;;;;;;2.67;1.57;;;36.80;25.00;;;;;;7385557;19;20416;-49
2022/08/08 13:14:09;;;;;;;2.10;1.10;;;36.20;25.30;;;;;;7384704;19;20865;-49
2022/08/08 13:16:42;;;;;;;1.93;1.30;;;35.60;25.70;;;;;;7384292;19;20427;-47
2022/08/08 13:19:12;;;;;;;2.43;1.27;;;35.10;26.20;;;;;;7357468;19;21588;-49
2022/08/08 13:21:49;;;;;;;1.70;1.53;;;34.90;26.40;;;;;;7385883;19;20384;-47
2022/08/08 13:24:18;;;;;;;1.57;1.47;;;34.50;26.40;;;;;;7384427;19;20831;-47
2022/08/08 13:26:48;;;;;;;3.80;1.73;;;34.20;26.80;;;;;;7383937;19;20411;-47
2022/08/08 13:29:19;;;;;;;2.73;1.30;;;34.10;26.90;;;;;;7384475;19;20376;-46
2022/08/08 13:31:49;;;;;;;2.20;1.50;;;33.80;27.10;;;;;;7384416;19;20442;-47
2022/08/08 13:34:23;;;;;;;2.07;1.50;;;33.60;27.40;;;;;;7384023;19;20376;-47
2022/08/08 13:36:56;;;;;;;1.37;1.27;;;33.50;27.30;;;;;;7385272;19;20927;-47
2022/08/08 13:39:26;;;;;;;1.60;1.40;;;33.40;27.40;;;;;;7384496;19;20372;-47
2022/08/08 13:41:56;;;;;;;1.90;1.50;;;33.00;27.80;;;;;;7385178;19;20422;-47
2022/08/08 13:44:28;;;;;;;2.57;1.57;;;32.60;28.00;;;;;;7385347;19;20410;-49
2022/08/08 13:46:59;;;;;;;1.87;1.30;;;32.40;28.10;;;;;;7385445;19;20439;-49
2022/08/08 13:49:30;;;;;;;1.40;1.30;;;32.30;28.50;;;;;;7385540;19;20369;-49